Thursday, April 26, 2018, 4:49 PM EDT
Back to Local

KBWI, Baltimore-washington International

Location: Glen Burnie, MD, United States Lat: 39.167
Local Time: 4:49 PM EDT (20:49 GMT) Lon: -76.683
Time Zone: US/Eastern Elev: 147 ft

Show me the last for .
Show Coded

Time T Td Feel RH Dir Speed Gust Alt SLP Vis Weather Sky Remarks
2018-04-26 15:54 69 37 - 30 310° 13 - 29.83 29.82 10 FEW160 SCT250 None
2018-04-26 14:54 67 38 - 34 310° 15 18 29.84 29.83 10 FEW160 SCT250 None
2018-04-26 13:54 66 39 - 37 320° 14 - 29.84 29.84 10 FEW160 FEW250 6-hr Min Temp (2pm): 51.1°F
6-hr Max Temp (2pm): 66.0°F
2018-04-26 12:54 64 41 - 42 310° 14 21 29.85 29.84 10 FEW160 FEW250 None
2018-04-26 11:54 61 42 - 49 310° 15 - 29.86 29.86 10 FEW002 FEW160 FEW250 None
2018-04-26 11:33 60 41 - 49 280° 15 21 29.86 - 10 FEW000 FEW160 SCT250 None
2018-04-26 10:54 59 41 - 51 280° 14 - 29.86 29.86 10 SCT150 BKN250 None
2018-04-26 09:54 56 40 - 54 260° 12 - 29.85 29.85 10 SCT150 SCT250 None
2018-04-26 08:54 55 40 - 56 290° 14 22 29.84 29.84 10 FEW160 BKN250 None
2018-04-26 07:54 51 39 - 63 300° 15 26 29.82 29.82 10 FEW160 SCT250 24-hr Precip Total (8am): 0.01"
6-hr Min Temp (8am): 45.0°F
6-hr Max Temp (8am): 55.9°F
2018-04-26 06:54 48 39 43 70 280° 13 - 29.81 29.80 10 FEW160 SCT250 None
2018-04-26 05:54 46 39 42 76 270° 8 - 29.79 29.79 10 FEW050 SCT250 None
2018-04-26 04:54 49 39 45 68 270° 10 - 29.80 29.80 10 SCT250 None
2018-04-26 03:54 51 43 - 73 280° 13 - 29.77 29.77 10 FEW250 None
2018-04-26 02:54 54 46 - 74 290° 20 26 29.73 29.73 10 CLR None
2018-04-26 01:54 55 50 - 83 290° 7 - 29.72 29.72 10 CLR 6-hr Precip Total (2am): 0.00"
6-hr Min Temp (2am): 55.0°F
6-hr Max Temp (2am): 63.0°F
2018-04-26 00:54 55 53 - 93 280° 8 - 29.72 29.71 10 FEW050 24-hr Min Temp (1am): 54.0°F
24-hr Max Temp (1am): 66.0°F
2018-04-25 23:54 56 56 - 100 260° 7 - 29.72 29.71 10 FEW050 FEW140 None
2018-04-25 22:54 57 57 - 100 250° 5 - 29.72 29.71 10 FEW080 SCT110 SCT140 1-hr Precip Total: Trace
6-hr Precip Total (11pm): 0.00"
2018-04-25 21:54 58 58 - 100 270° 5 - 29.72 29.71 10 FEW055 BKN075 BKN140 1-hr Precip Total: Trace
2018-04-25 20:54 61 59 - 93 Variable 3 - 29.71 29.70 10 SCT050 BKN065 OVC080 1-hr Precip Total: Trace
2018-04-25 19:54 63 57 - 80 300° 8 - 29.69 29.69 10 FEW025 BKN040 BKN055 OVC150 Virga in the vinicity
6-hr Precip Total (8pm): 0.00"
6-hr Min Temp (8pm): 63.0°F
6-hr Max Temp (8pm): 66.0°F
2018-04-25 19:41 63 58 - 83 300° 8 - 29.68 - 10 SCT025 BKN038 OVC050 Virga in the vinicity
2018-04-25 18:54 64 58 - 80 310° 13 - 29.67 29.67 10 BKN023 BKN029 OVC050 None
2018-04-25 17:54 65 59 - 81 320° 7 - 29.67 29.66 10 BKN021 BKN031 OVC050 None
2018-04-25 16:54 65 60 - 84 300° 6 - 29.66 29.66 10 BKN015 OVC022 6-hr Precip Total (5pm): 0.00"

Support USWX by starting your Amazon purchase here.